Arvin, California
Current Conditions -  °F | °C
As of 8:54 PM on Monday 26 Jan 2015 (Local Time) from KBFL Reporting Station
Light Rain Light Rain  
Wind Chill: 16°   Ceiling: 8000
Heat Index: 16°   Visibility: 10mi
Dew Point:   Wind: 7mph
Humidity: 64%   Direction: 100°E
Pressure: 30.03"   Gusts: NA
Location:  35.21°N, 118.82°W
Report Text: KBFL 270454Z 10006KT 10SM -RA OVC080 16/09 A3003 RMK AO2 RAB38 SLP167 P0000 T01560089
Loading
Personal Weather Stations






























Interactive Weather Map New forecast layout! Learn more

10-Day Weather Forecast

Advertisements
Track Severe Weather on mobile